createdAt,value
2018-12-02T00:01:37.366Z,24.50
2018-12-02T00:04:08.151Z,20.85
2018-12-02T00:06:38.891Z,22.77
2018-12-02T00:09:09.567Z,20.60
2018-12-02T00:11:40.316Z,20.35
2018-12-02T00:14:10.994Z,22.67
2018-12-02T00:16:42.719Z,26.42
2018-12-02T00:19:13.399Z,29.37
2018-12-02T00:21:44.035Z,29.23
2018-12-02T00:24:14.777Z,29.18
2018-12-02T00:26:45.498Z,27.58
2018-12-02T00:29:16.374Z,29.67
2018-12-02T00:31:47.767Z,30.02
2018-12-02T00:34:18.679Z,31.27
2018-12-02T00:36:49.720Z,30.55
2018-12-02T00:39:21.488Z,30.77
2018-12-02T00:41:52.539Z,29.00
2018-12-02T00:44:23.765Z,25.70
2018-12-02T00:46:57.604Z,25.65
2018-12-02T00:49:28.520Z,25.60
2018-12-02T00:51:59.436Z,26.02
2018-12-02T00:54:30.283Z,30.30
2018-12-02T00:57:05.391Z,32.65
2018-12-02T00:59:36.399Z,32.88
2018-12-02T01:02:11.211Z,31.27
2018-12-02T01:04:42.064Z,39.25
2018-12-02T01:07:13.847Z,34.33
2018-12-02T01:09:45.159Z,36.73
2018-12-02T01:12:21.312Z,34.40
2018-12-02T01:14:54.344Z,31.10
2018-12-02T01:17:27.032Z,30.35
2018-12-02T01:19:59.196Z,28.40
2018-12-02T01:22:30.283Z,27.67
2018-12-02T01:25:01.786Z,26.27
2018-12-02T01:27:32.876Z,25.37
2018-12-02T01:30:07.894Z,27.02
2018-12-02T01:32:38.851Z,27.02
2018-12-02T01:35:11.635Z,25.02
2018-12-02T01:37:46.165Z,25.32
2018-12-02T01:40:19.757Z,27.25
2018-12-02T01:42:53.058Z,25.43
2018-12-02T01:45:26.228Z,29.37
2018-12-02T01:47:59.135Z,24.72
2018-12-02T01:50:30.109Z,25.45
2018-12-02T01:53:01.368Z,26.90
2018-12-02T01:55:34.033Z,25.88
2018-12-02T01:58:05.914Z,26.30
2018-12-02T02:00:36.865Z,23.07
2018-12-02T02:03:09.674Z,21.87
2018-12-02T02:05:42.431Z,22.25
2018-12-02T02:08:13.346Z,23.10
2018-12-02T02:10:44.367Z,25.60
2018-12-02T02:13:15.760Z,23.87
2018-12-02T02:15:46.623Z,24.00
2018-12-02T02:18:17.384Z,23.38
2018-12-02T02:20:49.060Z,24.45
2018-12-02T02:23:19.806Z,25.32
2018-12-02T02:25:51.446Z,24.70
2018-12-02T02:28:22.759Z,23.95
2018-12-02T02:30:54.273Z,25.08
2018-12-02T02:33:25.557Z,24.37
2018-12-02T02:35:56.400Z,26.48
2018-12-02T02:38:27.150Z,24.72
2018-12-02T02:40:57.945Z,25.70
2018-12-02T02:43:28.706Z,26.27
2018-12-02T02:45:59.487Z,28.38
2018-12-02T02:48:30.708Z,28.87
2018-12-02T02:51:05.112Z,28.40
2018-12-02T02:53:35.769Z,29.63
2018-12-02T02:56:07.168Z,29.98
2018-12-02T02:58:37.879Z,28.95
2018-12-02T03:01:08.994Z,27.37
2018-12-02T03:03:39.749Z,29.82
2018-12-02T03:06:10.497Z,31.00
2018-12-02T03:08:41.158Z,30.37
2018-12-02T03:11:11.943Z,28.17
2018-12-02T03:13:43.168Z,27.45
2018-12-02T03:16:13.903Z,28.87
2018-12-02T03:18:44.675Z,27.37
2018-12-02T03:21:15.392Z,26.73
2018-12-02T03:23:46.094Z,26.27
2018-12-02T03:26:17.115Z,24.23
2018-12-02T03:28:48.084Z,23.83
2018-12-02T03:31:19.889Z,23.18
2018-12-02T03:33:51.232Z,23.38
2018-12-02T03:36:21.919Z,22.65
2018-12-02T03:38:52.621Z,23.15
2018-12-02T03:41:23.349Z,20.62
2018-12-02T03:43:54.057Z,20.50
2018-12-02T03:46:24.796Z,20.55
2018-12-02T03:48:55.512Z,19.67
2018-12-02T03:51:27.509Z,22.10
2018-12-02T03:53:58.146Z,22.05
2018-12-02T03:56:28.897Z,22.75
2018-12-02T03:59:00.473Z,20.75
2018-12-02T04:01:35.368Z,21.70
2018-12-02T04:04:06.246Z,23.47
2018-12-02T04:06:36.988Z,22.32
2018-12-02T04:09:09.965Z,23.85
2018-12-02T04:11:40.732Z,23.55
2018-12-02T04:14:11.465Z,25.17
2018-12-02T04:16:42.233Z,24.50
2018-12-02T04:19:12.991Z,24.12
2018-12-02T04:21:43.738Z,23.00
2018-12-02T04:24:14.425Z,25.43
2018-12-02T04:26:45.153Z,22.67
2018-12-02T04:29:15.806Z,23.15
2018-12-02T04:31:46.527Z,23.10
2018-12-02T04:34:17.508Z,23.52
2018-12-02T04:36:48.271Z,22.27
2018-12-02T04:39:19.003Z,22.75
2018-12-02T04:41:50.087Z,22.42
2018-12-02T04:44:20.825Z,22.58
2018-12-02T04:46:51.566Z,22.25
2018-12-02T04:49:22.339Z,22.65
2018-12-02T04:51:53.146Z,23.57
2018-12-02T04:54:23.912Z,23.38
2018-12-02T04:56:54.725Z,22.07
2018-12-02T04:59:25.425Z,21.73
2018-12-02T05:01:59.558Z,20.67
2018-12-02T05:04:30.262Z,20.45
2018-12-02T05:07:00.975Z,19.20
2018-12-02T05:09:31.730Z,19.15
2018-12-02T05:12:04.434Z,19.82
2018-12-02T05:14:35.140Z,18.10
2018-12-02T05:17:06.102Z,20.20
2018-12-02T05:19:36.751Z,18.42
2018-12-02T05:22:07.477Z,19.80
2018-12-02T05:24:38.157Z,19.65
2018-12-02T05:27:08.902Z,18.50
2018-12-02T05:29:39.628Z,19.02
2018-12-02T05:32:10.341Z,20.80
2018-12-02T05:34:40.993Z,20.62
2018-12-02T05:37:11.688Z,22.60
2018-12-02T05:39:42.459Z,21.27
2018-12-02T05:42:18.092Z,21.07
2018-12-02T05:44:48.814Z,20.52
2018-12-02T05:47:19.510Z,19.02
2018-12-02T05:49:50.231Z,19.20
2018-12-02T05:52:20.929Z,20.80
2018-12-02T05:54:51.631Z,19.10
2018-12-02T05:57:22.326Z,17.82
2018-12-02T05:59:53.045Z,18.55
2018-12-02T06:02:24.552Z,17.00
2018-12-02T06:04:55.266Z,17.92
2018-12-02T06:07:25.975Z,18.73
2018-12-02T06:09:56.682Z,19.23
2018-12-02T06:12:27.414Z,19.55
2018-12-02T06:14:58.157Z,18.77
2018-12-02T06:17:28.826Z,18.10
2018-12-02T06:20:04.514Z,19.85
2018-12-02T06:22:31.643Z,19.32
2018-12-02T06:25:03.557Z,18.67
2018-12-02T06:27:34.267Z,18.67
2018-12-02T06:30:09.721Z,18.50
2018-12-02T06:32:40.441Z,18.05
2018-12-02T06:35:13.685Z,19.27
2018-12-02T06:37:44.517Z,17.48
2018-12-02T06:40:19.222Z,18.02
2018-12-02T06:42:50.555Z,17.30
2018-12-02T06:45:21.433Z,18.17
2018-12-02T06:47:52.153Z,16.42
2018-12-02T06:50:24.848Z,18.17
2018-12-02T06:52:56.810Z,19.10
2018-12-02T06:56:35.489Z,18.67
2018-12-02T06:59:18.180Z,19.17
2018-12-02T07:04:08.565Z,21.48
2018-12-02T07:06:39.384Z,19.62
2018-12-02T07:09:10.145Z,20.08
2018-12-02T07:11:40.901Z,20.60
2018-12-02T07:14:11.576Z,19.55
2018-12-02T07:16:42.434Z,17.48
2018-12-02T07:19:20.847Z,17.17
2018-12-02T07:21:57.846Z,15.83
2018-12-02T07:24:32.751Z,16.57
2018-12-02T07:27:08.836Z,13.15
2018-12-02T07:29:40.127Z,13.22
2018-12-02T07:32:10.875Z,14.45
2018-12-02T07:35:05.334Z,14.25
2018-12-02T07:37:57.189Z,13.10
2018-12-02T07:40:37.150Z,13.03
2018-12-02T07:43:09.808Z,14.45
2018-12-02T07:45:40.593Z,13.93
2018-12-02T07:48:11.288Z,13.50
2018-12-02T07:50:42.069Z,14.35
2018-12-02T07:53:12.739Z,15.28
2018-12-02T07:55:43.457Z,13.53
2018-12-02T07:58:17.397Z,13.90
2018-12-02T08:00:48.121Z,13.05
2018-12-02T08:03:18.823Z,13.00
2018-12-02T08:05:49.892Z,13.18
2018-12-02T08:08:20.633Z,12.18
2018-12-02T08:10:51.969Z,15.10
2018-12-02T08:13:22.891Z,15.83
2018-12-02T08:15:53.674Z,16.30
2018-12-02T08:18:24.322Z,15.95
2018-12-02T08:20:55.057Z,15.13
2018-12-02T08:23:25.717Z,15.63
2018-12-02T08:25:56.522Z,14.53
2018-12-02T08:28:27.163Z,12.05
2018-12-02T08:30:57.888Z,12.98
2018-12-02T08:33:28.554Z,14.80
2018-12-02T08:35:59.390Z,14.20
2018-12-02T08:38:30.284Z,15.70
2018-12-02T08:41:01.137Z,14.78
2018-12-02T08:43:33.974Z,14.15
2018-12-02T08:46:05.162Z,13.13
2018-12-02T08:48:35.889Z,14.10
2018-12-02T08:51:06.735Z,13.00
2018-12-02T08:53:37.637Z,13.20
2018-12-02T08:56:08.469Z,12.93
2018-12-02T08:58:39.270Z,14.35
2018-12-02T09:01:10.614Z,15.30
2018-12-02T09:03:41.794Z,14.23
2018-12-02T09:06:14.202Z,13.43
2018-12-02T09:08:45.443Z,12.65
2018-12-02T09:11:16.381Z,12.07
2018-12-02T09:13:47.153Z,12.20
2018-12-02T09:16:18.559Z,12.05
2018-12-02T09:18:50.211Z,10.93
2018-12-02T09:21:21.018Z,11.38
2018-12-02T09:23:51.745Z,11.78
2018-12-02T09:26:22.452Z,10.00
2018-12-02T09:28:53.164Z,9.45
2018-12-02T09:31:23.897Z,9.33
2018-12-02T09:33:54.587Z,10.72
2018-12-02T09:36:25.354Z,11.90
2018-12-02T09:38:56.616Z,10.08
2018-12-02T09:41:27.270Z,11.00
2018-12-02T09:43:58.014Z,10.43
2018-12-02T09:46:28.730Z,10.58
2018-12-02T09:48:59.390Z,9.90
2018-12-02T09:51:33.693Z,8.95
2018-12-02T09:54:06.374Z,8.25
2018-12-02T09:56:38.381Z,7.75
2018-12-02T09:59:09.143Z,5.97
2018-12-02T10:01:41.998Z,5.65
2018-12-02T10:04:12.731Z,5.12
2018-12-02T10:06:44.383Z,4.97
2018-12-02T10:09:15.114Z,3.52
2018-12-02T10:11:46.663Z,2.67
2018-12-02T10:14:17.357Z,2.27
2018-12-02T10:16:48.021Z,2.30
2018-12-02T10:19:18.745Z,2.00
2018-12-02T10:21:49.477Z,2.45
2018-12-02T10:24:21.495Z,2.40
2018-12-02T10:26:52.186Z,2.10
2018-12-02T10:29:22.899Z,1.92
2018-12-02T10:31:53.634Z,2.37
2018-12-02T10:34:24.349Z,3.05
2018-12-02T10:36:55.817Z,3.00
2018-12-02T10:39:26.627Z,2.40
2018-12-02T10:41:57.329Z,2.17
2018-12-02T10:44:29.191Z,1.70
2018-12-02T10:46:59.862Z,2.35
2018-12-02T10:49:30.539Z,1.90
2018-12-02T10:52:05.326Z,2.10
2018-12-02T10:54:36.049Z,2.08
2018-12-02T10:57:06.966Z,2.08
2018-12-02T10:59:37.671Z,2.20
2018-12-02T11:02:16.592Z,2.33
2018-12-02T11:04:48.059Z,1.67
2018-12-02T11:07:18.742Z,2.30
2018-12-02T11:09:49.479Z,2.10
2018-12-02T11:12:20.210Z,2.00
2018-12-02T11:14:51.897Z,2.00
2018-12-02T11:17:22.628Z,2.05
2018-12-02T11:19:53.395Z,1.80
2018-12-02T11:22:24.639Z,1.92
2018-12-02T11:24:55.439Z,2.05
2018-12-02T11:27:26.173Z,2.37
2018-12-02T11:29:56.927Z,2.60
2018-12-02T11:32:27.657Z,1.80
2018-12-02T11:34:58.368Z,2.17
2018-12-02T11:37:29.569Z,2.33
2018-12-02T11:40:00.483Z,1.82
2018-12-02T11:42:31.241Z,2.10
2018-12-02T11:45:02.537Z,2.02
2018-12-02T11:47:37.274Z,2.20
2018-12-02T11:50:13.425Z,2.67
2018-12-02T11:52:44.215Z,2.62
2018-12-02T11:55:19.830Z,2.45
2018-12-02T11:57:51.164Z,4.37
2018-12-02T12:00:23.954Z,2.92
2018-12-02T12:02:55.375Z,2.80
2018-12-02T12:05:39.405Z,2.22
2018-12-02T12:08:16.854Z,2.60
2018-12-02T12:10:47.813Z,2.52
2018-12-02T12:13:19.768Z,5.65
2018-12-02T12:15:50.948Z,3.00
2018-12-02T12:18:21.785Z,2.52
2018-12-02T12:20:53.229Z,2.95
2018-12-02T12:23:24.371Z,3.10
2018-12-02T12:28:37.657Z,5.35
2018-12-02T12:31:08.339Z,2.45
2018-12-02T12:33:39.185Z,2.58
2018-12-02T12:36:09.925Z,2.90
2018-12-02T12:38:40.730Z,2.70
2018-12-02T12:41:11.894Z,2.67
2018-12-02T12:43:43.170Z,2.37
2018-12-02T12:46:14.186Z,2.45
2018-12-02T12:48:44.994Z,2.92
2018-12-02T12:51:15.674Z,2.65
2018-12-02T12:53:46.358Z,2.40
2018-12-02T12:56:18.351Z,3.50
2018-12-02T12:58:49.019Z,2.60
2018-12-02T13:01:20.462Z,2.42
2018-12-02T13:03:52.626Z,2.50
2018-12-02T13:06:23.367Z,2.05
2018-12-02T13:08:54.432Z,2.00
2018-12-02T13:14:41.071Z,1.92
2018-12-02T13:17:14.144Z,2.87
2018-12-02T13:19:53.785Z,2.47
2018-12-02T13:22:24.515Z,2.55
2018-12-02T13:24:55.504Z,2.35
2018-12-02T13:27:31.607Z,2.58
2018-12-02T13:30:18.341Z,2.22
2018-12-02T13:32:53.861Z,2.83
2018-12-02T13:35:28.186Z,2.77
2018-12-02T13:37:59.184Z,2.65
2018-12-02T13:40:29.867Z,2.70
2018-12-02T13:43:03.815Z,2.50
2018-12-02T13:45:35.015Z,2.50
2018-12-02T13:48:08.446Z,2.67
2018-12-02T13:50:39.615Z,3.10
2018-12-02T13:53:11.524Z,2.80
2018-12-02T13:55:42.581Z,2.77
2018-12-02T13:58:13.638Z,2.70
2018-12-02T14:00:44.583Z,2.12
2018-12-02T14:03:15.878Z,3.85
2018-12-02T14:05:47.703Z,2.47
2018-12-02T14:08:18.377Z,2.60
2018-12-02T14:11:29.090Z,2.65
2018-12-02T14:14:18.070Z,2.90
2018-12-02T14:17:09.194Z,2.70
2018-12-02T14:19:49.380Z,2.42
2018-12-02T14:22:20.352Z,2.37
2018-12-02T14:24:51.516Z,2.87
2018-12-02T14:27:23.454Z,2.85
2018-12-02T14:29:55.501Z,2.67
2018-12-02T14:32:27.123Z,3.17
2018-12-02T14:34:57.810Z,2.77
2018-12-02T14:37:28.461Z,2.33
2018-12-02T14:39:59.245Z,2.95
2018-12-02T14:42:38.669Z,3.50
2018-12-02T14:52:26.812Z,3.55
2018-12-02T14:58:23.562Z,2.55
2018-12-02T15:00:54.254Z,2.30
2018-12-02T15:03:24.931Z,2.58
2018-12-02T15:06:00.513Z,2.98
2018-12-02T15:08:34.979Z,2.47
2018-12-02T15:11:06.394Z,2.72
2018-12-02T15:13:37.094Z,2.40
2018-12-02T15:16:08.025Z,2.85
2018-12-02T15:18:38.794Z,3.00
2018-12-02T15:21:10.071Z,3.30
2018-12-02T15:23:41.438Z,3.40
2018-12-02T15:26:12.086Z,6.67
2018-12-02T15:28:42.844Z,5.75
2018-12-02T15:31:13.477Z,3.42
2018-12-02T15:33:50.331Z,2.45
2018-12-02T15:36:20.971Z,7.25
2018-12-02T15:38:51.659Z,3.22
2018-12-02T15:41:22.378Z,7.80
2018-12-02T15:43:53.132Z,3.10
2018-12-02T15:46:23.934Z,11.25
2018-12-02T15:48:54.698Z,3.45
2018-12-02T15:51:25.364Z,2.80
2018-12-02T15:53:56.074Z,3.55
2018-12-02T15:56:26.996Z,7.62
2018-12-02T15:58:57.665Z,3.60
2018-12-02T16:01:28.366Z,2.77
2018-12-02T16:03:59.073Z,3.08
2018-12-02T16:06:29.727Z,3.02
2018-12-02T16:09:00.450Z,3.37
2018-12-02T16:11:32.678Z,3.50
2018-12-02T16:14:04.535Z,3.17
2018-12-02T16:16:35.199Z,5.00
2018-12-02T16:19:06.252Z,4.95
2018-12-02T16:21:36.932Z,3.77
2018-12-02T16:24:07.634Z,2.92
2018-12-02T16:26:38.325Z,4.55
2018-12-02T16:29:08.974Z,7.30
2018-12-02T16:31:39.668Z,3.98
2018-12-02T16:34:10.407Z,4.15
2018-12-02T16:36:41.058Z,4.40
2018-12-02T16:39:11.462Z,4.67
2018-12-02T16:41:50.903Z,4.60
2018-12-02T16:44:21.602Z,4.37
2018-12-02T16:46:52.425Z,4.92
2018-12-02T16:49:23.110Z,5.58
2018-12-02T16:51:53.802Z,4.90
2018-12-02T16:54:25.525Z,5.10
2018-12-02T16:56:57.055Z,11.40
2018-12-02T16:59:32.278Z,9.08
2018-12-02T17:02:09.175Z,6.30
2018-12-02T17:04:40.257Z,5.47
2018-12-02T17:07:10.994Z,5.58
2018-12-02T17:09:42.204Z,5.50
2018-12-02T17:12:12.898Z,5.53
2018-12-02T17:14:43.526Z,5.33
2018-12-02T17:17:14.233Z,7.30
2018-12-02T17:19:45.043Z,4.72
2018-12-02T17:22:15.728Z,5.00
2018-12-02T17:24:46.462Z,4.72
2018-12-02T17:27:19.270Z,5.10
2018-12-02T17:29:50.050Z,4.75
2018-12-02T17:35:07.262Z,5.33
2018-12-02T17:37:38.013Z,4.83
2018-12-02T17:40:13.764Z,4.55
2018-12-02T17:42:44.521Z,5.25
2018-12-02T17:45:15.320Z,5.50
2018-12-02T17:47:45.969Z,5.58
2018-12-02T17:50:18.732Z,5.37
2018-12-02T17:52:50.224Z,5.55
2018-12-02T17:55:20.988Z,5.75
2018-12-02T17:57:51.756Z,6.35
2018-12-02T18:00:23.966Z,6.10
2018-12-02T18:02:55.922Z,6.65
2018-12-02T18:05:30.352Z,6.58
2018-12-02T18:08:01.083Z,6.28
2018-12-02T18:10:33.639Z,7.03
2018-12-02T18:13:05.402Z,7.53
2018-12-02T18:15:36.046Z,6.15
2018-12-02T18:18:09.853Z,6.28
2018-12-02T18:20:40.532Z,6.37
2018-12-02T18:23:11.260Z,8.13
2018-12-02T18:25:41.912Z,7.40
2018-12-02T18:28:12.613Z,7.12
2018-12-02T18:30:43.384Z,7.72
2018-12-02T18:33:15.580Z,9.65
2018-12-02T18:35:49.059Z,11.10
2018-12-02T18:38:21.298Z,9.53
2018-12-02T18:41:00.899Z,9.20
2018-12-02T18:43:41.248Z,7.47
2018-12-02T18:46:13.096Z,6.53
2018-12-02T18:48:43.758Z,6.20
2018-12-02T18:51:14.483Z,4.75
2018-12-02T18:53:45.266Z,4.67
2018-12-02T18:56:16.720Z,3.87
2018-12-02T18:58:47.486Z,3.85
2018-12-02T19:01:18.587Z,4.28
2018-12-02T19:03:50.046Z,4.30
2018-12-02T19:06:28.232Z,3.90
2018-12-02T19:08:54.940Z,3.72
2018-12-02T19:11:26.411Z,3.98
2018-12-02T19:13:57.147Z,5.20
2018-12-02T19:16:27.803Z,5.70
2018-12-02T19:18:58.485Z,4.83
2018-12-02T19:21:30.528Z,3.92
2018-12-02T19:24:04.202Z,4.20
2018-12-02T19:26:34.850Z,4.05
2018-12-02T19:29:07.482Z,3.67
2018-12-02T19:31:38.215Z,4.50
2018-12-02T19:34:09.283Z,4.55
2018-12-02T19:36:48.125Z,5.05
2018-12-02T19:39:18.969Z,4.17
2018-12-02T19:41:50.335Z,4.17
2018-12-02T19:44:21.724Z,4.40
2018-12-02T19:46:52.455Z,5.03
2018-12-02T19:49:23.107Z,3.87
2018-12-02T19:51:53.904Z,4.35
2018-12-02T19:54:24.700Z,4.12
2018-12-02T19:56:55.529Z,4.30
2018-12-02T19:59:26.225Z,4.75
2018-12-02T20:01:56.845Z,4.12
2018-12-02T20:04:27.747Z,7.22
2018-12-02T20:06:58.477Z,4.95
2018-12-02T20:09:29.601Z,4.40
2018-12-02T20:12:00.320Z,4.95
2018-12-02T20:14:33.186Z,4.50
2018-12-02T20:17:04.595Z,4.33
2018-12-02T20:19:40.683Z,4.05
2018-12-02T20:22:12.006Z,4.25
2018-12-02T20:24:42.665Z,5.47
2018-12-02T20:27:13.351Z,4.00
2018-12-02T20:29:44.086Z,4.75
2018-12-02T20:32:14.748Z,4.42
2018-12-02T20:34:45.470Z,4.12
2018-12-02T20:37:16.698Z,4.90
2018-12-02T20:39:47.417Z,4.28
2018-12-02T20:42:18.566Z,5.45
2018-12-02T20:44:52.756Z,5.03
2018-12-02T20:47:20.420Z,5.05
2018-12-02T20:49:52.328Z,4.47
2018-12-02T20:52:23.092Z,4.33
2018-12-02T20:54:54.042Z,4.58
2018-12-02T20:57:24.838Z,4.15
2018-12-02T20:59:56.623Z,4.17
2018-12-02T21:02:27.316Z,3.87
2018-12-02T21:04:58.003Z,4.30
2018-12-02T21:07:28.697Z,4.35
2018-12-02T21:10:05.520Z,4.12
2018-12-02T21:12:36.218Z,4.20
2018-12-02T21:15:14.943Z,4.25
2018-12-02T21:17:45.836Z,3.58
2018-12-02T21:20:16.505Z,3.65
2018-12-02T21:22:47.230Z,4.10
2018-12-02T21:25:20.651Z,3.95
2018-12-02T21:27:51.400Z,3.87
2018-12-02T21:30:24.420Z,3.67
2018-12-02T21:32:55.179Z,3.33
2018-12-02T21:35:25.842Z,3.52
2018-12-02T21:37:57.912Z,3.75
2018-12-02T21:40:28.612Z,4.03
2018-12-02T21:43:00.926Z,3.92
2018-12-02T21:45:35.575Z,3.98
2018-12-02T21:48:10.658Z,3.30
2018-12-02T21:50:41.348Z,3.25
2018-12-02T21:53:12.773Z,3.62
2018-12-02T21:55:52.500Z,3.00
2018-12-02T21:58:25.538Z,4.20
2018-12-02T22:01:03.247Z,3.37
2018-12-02T22:03:34.127Z,4.45
2018-12-02T22:06:06.348Z,3.42
2018-12-02T22:08:37.345Z,3.80
2018-12-02T22:11:09.001Z,3.47
2018-12-02T22:13:43.412Z,3.58
2018-12-02T22:16:12.101Z,3.27
2018-12-02T22:18:42.739Z,3.20
2018-12-02T22:21:14.262Z,3.00
2018-12-02T22:23:45.094Z,2.98
2018-12-02T22:26:15.781Z,3.40
2018-12-02T22:28:46.616Z,3.33
2018-12-02T22:31:17.493Z,2.77
2018-12-02T22:33:48.981Z,3.10
2018-12-02T22:36:19.735Z,3.15
2018-12-02T22:38:50.619Z,3.08
2018-12-02T22:41:21.407Z,2.70
2018-12-02T22:43:53.582Z,3.62
2018-12-02T22:46:24.350Z,2.90
2018-12-02T22:48:54.993Z,2.60
2018-12-02T22:51:25.942Z,2.92
2018-12-02T22:53:57.689Z,2.47
2018-12-02T22:56:28.984Z,2.83
2018-12-02T22:59:00.902Z,2.20
2018-12-02T23:01:38.809Z,2.95
2018-12-02T23:04:09.603Z,2.08
2018-12-02T23:06:40.362Z,2.22
2018-12-02T23:09:11.209Z,2.42
2018-12-02T23:11:42.686Z,2.02
2018-12-02T23:14:13.777Z,3.22
2018-12-02T23:16:54.286Z,2.35
2018-12-02T23:19:26.917Z,2.20
2018-12-02T23:22:06.350Z,2.40
2018-12-02T23:24:37.026Z,2.72
2018-12-02T23:27:07.922Z,1.80
2018-12-02T23:29:39.441Z,2.12
2018-12-02T23:32:10.200Z,2.35
2018-12-02T23:34:42.170Z,2.27
2018-12-02T23:37:20.427Z,2.10
2018-12-02T23:39:45.455Z,2.12
2018-12-02T23:42:16.963Z,2.42
2018-12-02T23:44:49.109Z,2.42
2018-12-02T23:47:19.755Z,2.75
2018-12-02T23:49:50.431Z,2.37
2018-12-02T23:52:23.135Z,2.25
2018-12-02T23:54:53.781Z,2.40
2018-12-02T23:57:24.549Z,2.08
2018-12-02T23:59:56.747Z,2.40
